createdAt,value
2023-12-17T00:01:13.863Z,37.40
2023-12-17T00:03:42.243Z,28.88
2023-12-17T00:06:10.285Z,32.03
2023-12-17T00:08:38.173Z,31.08
2023-12-17T00:11:05.951Z,24.75
2023-12-17T00:13:36.054Z,25.85
2023-12-17T00:16:05.391Z,23.45
2023-12-17T00:18:34.126Z,23.67
2023-12-17T00:21:02.083Z,25.92
2023-12-17T00:23:29.960Z,34.55
2023-12-17T00:25:57.584Z,28.00
2023-12-17T00:28:25.137Z,28.30
2023-12-17T00:30:52.829Z,23.83
2023-12-17T00:33:20.462Z,22.77
2023-12-17T00:35:48.262Z,21.00
2023-12-17T00:38:15.957Z,23.50
2023-12-17T00:40:43.950Z,23.77
2023-12-17T00:43:11.582Z,27.60
2023-12-17T00:45:39.370Z,25.75
2023-12-17T00:48:07.812Z,24.25
2023-12-17T00:50:36.040Z,19.15
2023-12-17T00:53:03.769Z,19.40
2023-12-17T00:55:31.591Z,24.17
2023-12-17T00:57:59.234Z,16.45
2023-12-17T01:00:26.985Z,19.35
2023-12-17T01:02:54.894Z,17.23
2023-12-17T01:05:22.870Z,19.33
2023-12-17T01:07:51.505Z,18.08
2023-12-17T01:10:19.124Z,19.67
2023-12-17T01:12:47.017Z,18.05
2023-12-17T01:15:15.139Z,21.65
2023-12-17T01:17:44.334Z,24.02
2023-12-17T01:20:13.533Z,17.88
2023-12-17T01:22:41.373Z,13.70
2023-12-17T01:25:09.474Z,18.27
2023-12-17T01:27:37.557Z,17.35
2023-12-17T01:30:06.155Z,15.07
2023-12-17T01:32:34.204Z,13.18
2023-12-17T01:35:02.066Z,13.75
2023-12-17T01:37:29.856Z,19.25
2023-12-17T01:39:57.610Z,19.88
2023-12-17T01:42:25.484Z,14.27
2023-12-17T01:44:53.335Z,17.02
2023-12-17T01:47:21.366Z,16.63
2023-12-17T01:49:49.665Z,12.05
2023-12-17T01:52:18.680Z,15.70
2023-12-17T01:54:47.224Z,17.70
2023-12-17T01:57:15.273Z,14.88
2023-12-17T01:59:43.429Z,14.05
2023-12-17T02:02:12.031Z,16.17
2023-12-17T02:04:40.745Z,13.10
2023-12-17T02:07:09.039Z,16.58
2023-12-17T02:09:36.808Z,12.20
2023-12-17T02:12:04.771Z,13.68
2023-12-17T02:14:32.912Z,12.65
2023-12-17T02:17:01.223Z,11.70
2023-12-17T02:19:29.247Z,14.10
2023-12-17T02:21:57.068Z,14.57
2023-12-17T02:24:25.034Z,13.52
2023-12-17T02:26:54.126Z,9.35
2023-12-17T02:29:22.602Z,12.85
2023-12-17T02:31:50.611Z,15.25
2023-12-17T02:34:19.065Z,16.83
2023-12-17T02:36:47.520Z,10.88
2023-12-17T02:39:16.153Z,15.98
2023-12-17T02:41:44.227Z,10.13
2023-12-17T02:44:11.927Z,15.95
2023-12-17T02:46:39.705Z,11.52
2023-12-17T02:49:07.968Z,12.95
2023-12-17T02:51:35.568Z,8.60
2023-12-17T02:54:03.319Z,10.45
2023-12-17T02:56:30.843Z,10.35
2023-12-17T02:58:58.442Z,10.50
2023-12-17T03:01:26.196Z,9.48
2023-12-17T03:03:53.868Z,10.43
2023-12-17T03:06:21.644Z,10.25
2023-12-17T03:08:49.257Z,10.07
2023-12-17T03:11:16.831Z,10.98
2023-12-17T03:13:44.543Z,10.98
2023-12-17T03:16:12.110Z,12.60
2023-12-17T03:18:39.913Z,9.38
2023-12-17T03:21:09.262Z,11.50
2023-12-17T03:23:37.133Z,10.07
2023-12-17T03:26:05.544Z,11.35
2023-12-17T03:28:33.199Z,9.27
2023-12-17T03:31:00.880Z,10.07
2023-12-17T03:33:28.605Z,8.65
2023-12-17T03:35:56.673Z,12.10
2023-12-17T03:38:24.590Z,12.10
2023-12-17T03:40:52.328Z,11.45
2023-12-17T03:43:20.108Z,12.20
2023-12-17T03:45:47.955Z,11.82
2023-12-17T03:48:15.755Z,13.38
2023-12-17T03:50:43.523Z,13.35
2023-12-17T03:53:12.206Z,12.00
2023-12-17T03:55:39.806Z,15.85
2023-12-17T03:58:07.454Z,13.45
2023-12-17T04:00:35.360Z,11.70
2023-12-17T04:03:03.458Z,12.30
2023-12-17T04:05:31.614Z,14.65
2023-12-17T04:07:59.301Z,13.38
2023-12-17T04:10:26.987Z,13.35
2023-12-17T04:12:55.145Z,14.73
2023-12-17T04:15:22.897Z,20.60
2023-12-17T04:17:50.657Z,24.92
2023-12-17T04:20:18.366Z,18.10
2023-12-17T04:22:45.967Z,15.95
2023-12-17T04:25:13.820Z,17.02
2023-12-17T04:27:42.443Z,17.00
2023-12-17T04:30:10.933Z,17.90
2023-12-17T04:32:38.988Z,22.88
2023-12-17T04:35:07.950Z,23.52
2023-12-17T04:37:35.510Z,24.05
2023-12-17T04:40:03.754Z,28.83
2023-12-17T04:42:33.959Z,22.23
2023-12-17T04:45:03.111Z,28.48
2023-12-17T04:47:30.840Z,21.75
2023-12-17T04:49:58.456Z,16.90
2023-12-17T04:52:26.109Z,16.50
2023-12-17T04:54:53.772Z,15.73
2023-12-17T04:57:21.483Z,19.67
2023-12-17T04:59:49.338Z,18.70
2023-12-17T05:02:17.016Z,18.13
2023-12-17T05:04:44.706Z,22.77
2023-12-17T05:07:12.299Z,19.00
2023-12-17T05:09:39.805Z,23.45
2023-12-17T05:12:07.804Z,23.70
2023-12-17T05:14:35.412Z,18.80
2023-12-17T05:17:03.076Z,17.75
2023-12-17T05:19:31.061Z,17.60
2023-12-17T05:21:59.413Z,20.98
2023-12-17T05:24:27.055Z,20.80
2023-12-17T05:26:54.697Z,21.98
2023-12-17T05:29:22.476Z,21.52
2023-12-17T05:31:50.089Z,23.83
2023-12-17T05:34:18.425Z,21.55
2023-12-17T05:36:46.200Z,24.42
2023-12-17T05:39:13.895Z,19.80
2023-12-17T05:41:41.479Z,19.83
2023-12-17T05:44:09.029Z,20.20
2023-12-17T05:46:36.667Z,22.58
2023-12-17T05:49:04.526Z,22.73
2023-12-17T05:51:32.435Z,22.10
2023-12-17T05:54:00.179Z,20.83
2023-12-17T05:56:27.958Z,17.60
2023-12-17T05:58:55.799Z,18.00
2023-12-17T06:01:23.545Z,18.65
2023-12-17T06:03:51.331Z,20.52
2023-12-17T06:06:19.279Z,15.85
2023-12-17T06:08:47.297Z,20.45
2023-12-17T06:11:17.954Z,17.60
2023-12-17T06:13:46.473Z,20.52
2023-12-17T06:16:14.117Z,17.83
2023-12-17T06:18:43.599Z,15.55
2023-12-17T06:21:20.738Z,20.30
2023-12-17T06:23:48.652Z,16.52
2023-12-17T06:26:16.722Z,18.92
2023-12-17T06:28:44.319Z,24.90
2023-12-17T06:31:12.033Z,18.55
2023-12-17T06:33:39.910Z,21.95
2023-12-17T06:36:08.130Z,26.45
2023-12-17T06:38:35.934Z,21.13
2023-12-17T06:41:03.922Z,22.35
2023-12-17T06:43:31.467Z,28.58
2023-12-17T06:45:59.086Z,22.45
2023-12-17T06:48:26.926Z,29.60
2023-12-17T06:50:54.617Z,21.02
2023-12-17T06:53:22.320Z,24.17
2023-12-17T06:55:50.086Z,22.95
2023-12-17T06:58:17.717Z,23.52
2023-12-17T07:00:45.749Z,24.15
2023-12-17T07:03:14.466Z,20.95
2023-12-17T07:05:42.474Z,22.42
2023-12-17T07:08:10.140Z,18.92
2023-12-17T07:10:37.871Z,19.85
2023-12-17T07:13:06.171Z,28.75
2023-12-17T07:15:33.870Z,16.25
2023-12-17T07:18:01.694Z,40.72
2023-12-17T07:20:29.279Z,20.95
2023-12-17T07:22:56.746Z,22.17
2023-12-17T07:25:28.213Z,23.58
2023-12-17T07:27:56.077Z,29.60
2023-12-17T07:30:23.850Z,22.83
2023-12-17T07:32:51.617Z,18.92
2023-12-17T07:35:19.269Z,23.77
2023-12-17T07:37:46.765Z,22.60
2023-12-17T07:40:14.308Z,22.40
2023-12-17T07:42:42.919Z,26.15
2023-12-17T07:45:11.035Z,26.98
2023-12-17T07:47:39.806Z,24.92
2023-12-17T07:50:09.338Z,24.20
2023-12-17T07:52:36.859Z,22.65
2023-12-17T07:55:04.660Z,21.95
2023-12-17T07:57:32.572Z,25.75
2023-12-17T08:00:00.305Z,26.92
2023-12-17T08:02:27.845Z,26.83
2023-12-17T08:04:55.449Z,24.70
2023-12-17T08:07:23.185Z,24.92
2023-12-17T08:09:50.664Z,24.77
2023-12-17T08:12:18.290Z,23.70
2023-12-17T08:14:45.815Z,21.67
2023-12-17T08:17:13.782Z,26.33
2023-12-17T08:19:41.331Z,20.40
2023-12-17T08:22:08.909Z,20.33
2023-12-17T08:24:36.548Z,25.38
2023-12-17T08:27:04.346Z,26.02
2023-12-17T08:29:31.923Z,17.75
2023-12-17T08:31:59.339Z,18.88
2023-12-17T08:34:30.429Z,17.80
2023-12-17T08:36:58.278Z,16.83
2023-12-17T08:39:26.776Z,16.02
2023-12-17T08:41:55.276Z,16.58
2023-12-17T08:44:24.461Z,17.65
2023-12-17T08:46:52.389Z,12.50
2023-12-17T08:49:20.611Z,13.20
2023-12-17T08:51:48.260Z,18.05
2023-12-17T08:54:15.817Z,16.10
2023-12-17T08:56:43.477Z,16.42
2023-12-17T08:59:10.995Z,13.80
2023-12-17T09:01:38.708Z,19.25
2023-12-17T09:04:06.453Z,21.17
2023-12-17T09:06:46.180Z,19.13
2023-12-17T09:09:15.018Z,16.92
2023-12-17T09:11:42.719Z,16.60
2023-12-17T09:14:10.259Z,12.98
2023-12-17T09:16:39.285Z,11.63
2023-12-17T09:19:07.197Z,11.20
2023-12-17T09:21:35.041Z,17.85
2023-12-17T09:24:03.313Z,14.05
2023-12-17T09:26:30.984Z,13.40
2023-12-17T09:28:58.638Z,12.20
2023-12-17T09:31:27.429Z,13.43
2023-12-17T09:33:55.704Z,13.00
2023-12-17T09:36:24.524Z,9.05
2023-12-17T09:38:52.128Z,9.48
2023-12-17T09:41:19.775Z,14.75
2023-12-17T09:43:47.982Z,15.10
2023-12-17T09:46:15.567Z,12.63
2023-12-17T09:48:44.379Z,12.07
2023-12-17T09:51:14.466Z,10.30
2023-12-17T09:53:42.245Z,11.32
2023-12-17T09:56:11.861Z,15.85
2023-12-17T09:58:39.833Z,11.50
2023-12-17T10:01:07.569Z,14.90
2023-12-17T10:03:35.250Z,13.38
2023-12-17T10:06:04.683Z,13.57
2023-12-17T10:08:33.972Z,11.45
2023-12-17T10:11:02.553Z,10.95
2023-12-17T10:13:30.257Z,10.63
2023-12-17T10:15:57.792Z,10.88
2023-12-17T10:18:25.527Z,12.48
2023-12-17T10:20:53.628Z,6.05
2023-12-17T10:23:21.230Z,5.20
2023-12-17T10:26:01.750Z,5.28
2023-12-17T10:28:29.269Z,7.65
2023-12-17T10:30:59.567Z,5.75
2023-12-17T10:33:34.612Z,6.38
2023-12-17T10:36:02.464Z,9.35
2023-12-17T10:38:30.378Z,9.70
2023-12-17T10:40:58.235Z,5.13
2023-12-17T10:43:26.167Z,5.60
2023-12-17T10:45:55.826Z,4.35
2023-12-17T10:48:23.565Z,6.32
2023-12-17T10:50:52.403Z,6.35
2023-12-17T10:53:20.017Z,3.80
2023-12-17T10:55:47.890Z,5.57
2023-12-17T10:58:20.474Z,5.10
2023-12-17T11:00:48.509Z,5.63
2023-12-17T11:03:16.841Z,5.13
2023-12-17T11:06:03.179Z,5.38
2023-12-17T11:08:31.821Z,6.40
2023-12-17T11:11:00.979Z,5.13
2023-12-17T11:13:29.355Z,4.40
2023-12-17T11:15:57.050Z,6.18
2023-12-17T11:18:42.506Z,6.30
2023-12-17T11:21:11.161Z,5.85
2023-12-17T11:23:39.340Z,5.78
2023-12-17T11:26:07.484Z,6.88
2023-12-17T11:28:35.435Z,6.40
2023-12-17T11:31:04.157Z,4.97
2023-12-17T11:33:33.111Z,9.50
2023-12-17T11:36:01.105Z,3.47
2023-12-17T11:38:28.580Z,6.13
2023-12-17T11:40:56.128Z,3.53
2023-12-17T11:43:26.298Z,5.50
2023-12-17T11:45:55.495Z,3.78
2023-12-17T11:48:23.718Z,3.85
2023-12-17T11:50:55.577Z,3.75
2023-12-17T11:53:24.177Z,3.97
2023-12-17T11:55:57.314Z,4.00
2023-12-17T11:58:25.283Z,3.72
2023-12-17T12:01:10.920Z,4.72
2023-12-17T12:03:40.239Z,4.65
2023-12-17T12:06:13.160Z,4.65
2023-12-17T12:08:43.425Z,4.25
2023-12-17T12:11:15.446Z,5.30
2023-12-17T12:13:46.398Z,5.57
2023-12-17T12:16:14.581Z,7.47
2023-12-17T12:18:43.634Z,6.00
2023-12-17T12:21:23.798Z,5.63
2023-12-17T12:23:56.574Z,6.55
2023-12-17T12:26:25.912Z,7.57
2023-12-17T12:29:00.975Z,5.88
2023-12-17T12:31:30.276Z,3.92
2023-12-17T12:34:01.259Z,5.53
2023-12-17T12:36:49.250Z,4.45
2023-12-17T12:39:20.344Z,7.35
2023-12-17T12:41:49.143Z,5.68
2023-12-17T12:44:18.314Z,6.80
2023-12-17T12:46:49.833Z,5.88
2023-12-17T12:49:19.476Z,5.00
2023-12-17T12:51:48.720Z,4.72
2023-12-17T12:54:16.845Z,5.90
2023-12-17T12:56:44.813Z,5.05
2023-12-17T12:59:22.706Z,4.57
2023-12-17T13:01:56.753Z,8.77
2023-12-17T13:04:24.494Z,9.40
2023-12-17T13:06:52.268Z,13.45
2023-12-17T13:09:21.448Z,8.98
2023-12-17T13:11:51.363Z,11.05
2023-12-17T13:14:20.987Z,10.90
2023-12-17T13:16:52.407Z,11.40
2023-12-17T13:19:22.524Z,11.13
2023-12-17T13:21:51.426Z,9.68
2023-12-17T13:24:19.101Z,8.65
2023-12-17T13:26:46.867Z,11.13
2023-12-17T13:29:14.668Z,9.43
2023-12-17T13:31:42.823Z,10.15
2023-12-17T13:34:10.607Z,15.60
2023-12-17T13:36:38.413Z,27.55
2023-12-17T13:39:05.988Z,30.58
2023-12-17T13:41:41.696Z,27.25
2023-12-17T13:44:15.559Z,28.33
2023-12-17T13:46:43.101Z,26.92
2023-12-17T13:49:11.025Z,30.30
2023-12-17T13:51:38.766Z,29.90
2023-12-17T13:54:06.827Z,30.77
2023-12-17T13:56:39.030Z,28.23
2023-12-17T13:59:11.933Z,28.63
2023-12-17T14:01:39.581Z,32.17
2023-12-17T14:04:07.284Z,27.63
2023-12-17T14:06:36.253Z,31.73
2023-12-17T14:09:03.977Z,33.38
2023-12-17T14:11:34.547Z,32.45
2023-12-17T14:14:02.599Z,30.30
2023-12-17T14:16:32.310Z,32.05
2023-12-17T14:19:01.385Z,30.20
2023-12-17T14:21:30.759Z,31.83
2023-12-17T14:23:58.523Z,29.63
2023-12-17T14:26:26.427Z,32.78
2023-12-17T14:28:54.220Z,30.38
2023-12-17T14:31:31.419Z,28.60
2023-12-17T14:34:04.974Z,33.45
2023-12-17T14:36:38.585Z,29.25
2023-12-17T14:39:06.632Z,34.42
2023-12-17T14:41:34.270Z,36.63
2023-12-17T14:44:01.837Z,32.38
2023-12-17T14:46:29.281Z,33.92
2023-12-17T14:48:56.947Z,32.90
2023-12-17T14:51:24.554Z,35.13
2023-12-17T14:53:56.049Z,33.22
2023-12-17T14:56:26.551Z,38.40
2023-12-17T14:58:58.011Z,40.55
2023-12-17T15:01:33.646Z,42.20
2023-12-17T15:04:03.468Z,44.42
2023-12-17T15:06:32.188Z,41.30
2023-12-17T15:09:02.648Z,40.92
2023-12-17T15:11:30.593Z,42.05
2023-12-17T15:13:58.829Z,42.97
2023-12-17T15:16:29.893Z,42.78
2023-12-17T15:18:58.604Z,43.57
2023-12-17T15:21:26.590Z,50.55
2023-12-17T15:23:54.306Z,49.33
2023-12-17T15:26:21.829Z,43.83
2023-12-17T15:28:50.532Z,49.33
2023-12-17T15:31:18.135Z,52.95
2023-12-17T15:33:46.562Z,55.85
2023-12-17T15:36:14.165Z,54.40
2023-12-17T15:38:41.700Z,52.88
2023-12-17T15:41:17.417Z,53.17
2023-12-17T15:43:45.334Z,49.70
2023-12-17T15:46:23.670Z,54.92
2023-12-17T15:48:51.560Z,55.35
2023-12-17T15:51:21.610Z,57.30
2023-12-17T15:53:51.380Z,55.83
2023-12-17T15:56:20.321Z,59.17
2023-12-17T15:58:52.093Z,53.60
2023-12-17T16:01:19.878Z,50.70
2023-12-17T16:03:47.988Z,52.92
2023-12-17T16:06:16.715Z,61.58
2023-12-17T16:08:44.461Z,54.67
2023-12-17T16:11:12.092Z,50.92
2023-12-17T16:13:39.982Z,55.42
2023-12-17T16:16:07.490Z,57.53
2023-12-17T16:18:36.410Z,54.20
2023-12-17T16:21:05.406Z,51.00
2023-12-17T16:23:33.187Z,60.08
2023-12-17T16:26:00.808Z,52.10
2023-12-17T16:28:28.338Z,56.28
2023-12-17T16:30:55.896Z,48.88
2023-12-17T16:33:23.580Z,52.30
2023-12-17T16:35:53.578Z,54.08
2023-12-17T16:38:21.566Z,53.25
2023-12-17T16:40:49.091Z,53.67
2023-12-17T16:43:16.645Z,51.33
2023-12-17T16:45:47.544Z,51.95
2023-12-17T16:48:16.693Z,59.95
2023-12-17T16:50:45.918Z,51.25
2023-12-17T16:53:13.992Z,56.38
2023-12-17T16:55:41.634Z,53.50
2023-12-17T16:58:09.274Z,55.72
2023-12-17T17:00:36.863Z,51.42
2023-12-17T17:03:04.755Z,56.53
2023-12-17T17:05:32.312Z,53.63
2023-12-17T17:07:59.831Z,54.28
2023-12-17T17:10:27.338Z,64.20
2023-12-17T17:12:54.857Z,66.47
2023-12-17T17:15:22.417Z,56.85
2023-12-17T17:17:50.012Z,64.32
2023-12-17T17:20:17.604Z,60.45
2023-12-17T17:22:45.307Z,64.88
2023-12-17T17:25:12.910Z,66.57
2023-12-17T17:27:41.050Z,68.75
2023-12-17T17:30:09.440Z,65.57
2023-12-17T17:32:37.785Z,62.22
2023-12-17T17:35:10.282Z,63.35
2023-12-17T17:37:38.752Z,62.85
2023-12-17T17:40:07.964Z,69.43
2023-12-17T17:42:35.603Z,67.28
2023-12-17T17:45:03.939Z,62.20
2023-12-17T17:47:31.534Z,61.75
2023-12-17T17:49:59.084Z,61.28
2023-12-17T17:52:26.693Z,66.18
2023-12-17T17:54:54.190Z,61.03
2023-12-17T17:57:21.792Z,63.28
2023-12-17T17:59:50.401Z,69.32
2023-12-17T18:02:18.798Z,69.78
2023-12-17T18:04:47.016Z,68.30
2023-12-17T18:07:14.525Z,60.95
2023-12-17T18:09:42.250Z,72.00
2023-12-17T18:12:09.849Z,67.97
2023-12-17T18:14:37.451Z,62.53
2023-12-17T18:17:05.947Z,61.85
2023-12-17T18:19:33.619Z,65.82
2023-12-17T18:22:01.224Z,62.22
2023-12-17T18:24:29.056Z,61.92
2023-12-17T18:27:01.619Z,61.20
2023-12-17T18:29:30.012Z,59.95
2023-12-17T18:31:57.722Z,60.13
2023-12-17T18:34:28.453Z,62.00
2023-12-17T18:36:56.256Z,43.50
2023-12-17T18:39:23.721Z,58.88
2023-12-17T18:41:51.267Z,62.20
2023-12-17T18:44:18.714Z,62.83
2023-12-17T18:46:46.368Z,70.70
2023-12-17T18:49:14.416Z,64.55
2023-12-17T18:51:41.938Z,57.03
2023-12-17T18:54:09.927Z,62.92
2023-12-17T18:56:37.476Z,60.38
2023-12-17T18:59:04.957Z,68.47
2023-12-17T19:01:33.368Z,58.05
2023-12-17T19:04:02.621Z,60.30
2023-12-17T19:06:30.184Z,58.47
2023-12-17T19:08:58.370Z,61.92
2023-12-17T19:11:27.835Z,68.72
2023-12-17T19:13:55.282Z,61.92
2023-12-17T19:16:22.880Z,59.60
2023-12-17T19:18:50.765Z,60.03
2023-12-17T19:21:19.625Z,61.97
2023-12-17T19:23:47.900Z,68.13
2023-12-17T19:26:15.566Z,60.38
2023-12-17T19:28:43.079Z,63.00
2023-12-17T19:31:14.135Z,58.55
2023-12-17T19:33:42.076Z,65.77
2023-12-17T19:36:09.635Z,77.75
2023-12-17T19:38:42.160Z,76.80
2023-12-17T19:41:10.141Z,65.53
2023-12-17T19:43:37.958Z,68.55
2023-12-17T19:46:06.715Z,67.70
2023-12-17T19:48:34.400Z,64.95
2023-12-17T19:51:02.138Z,61.75
2023-12-17T19:53:29.673Z,58.97
2023-12-17T19:55:57.114Z,58.47
2023-12-17T19:58:24.821Z,61.47
2023-12-17T20:00:54.128Z,64.68
2023-12-17T20:03:21.847Z,71.60
2023-12-17T20:05:49.533Z,67.00
2023-12-17T20:08:17.079Z,67.93
2023-12-17T20:10:46.203Z,69.20
2023-12-17T20:13:13.871Z,75.30
2023-12-17T20:15:41.812Z,73.95
2023-12-17T20:18:16.588Z,81.28
2023-12-17T20:20:45.099Z,77.20
2023-12-17T20:23:12.675Z,84.82
2023-12-17T20:25:41.279Z,81.07
2023-12-17T20:28:08.853Z,87.72
2023-12-17T20:30:37.518Z,80.47
2023-12-17T20:33:07.799Z,81.03
2023-12-17T20:35:42.270Z,78.90
2023-12-17T20:38:12.263Z,74.43
2023-12-17T20:40:40.893Z,73.55
2023-12-17T20:43:08.439Z,61.03
2023-12-17T20:45:36.377Z,69.03
2023-12-17T20:48:08.085Z,62.35
2023-12-17T20:50:35.916Z,60.30
2023-12-17T20:53:03.443Z,66.07
2023-12-17T20:55:31.026Z,64.40
2023-12-17T20:57:58.696Z,60.08
2023-12-17T21:00:26.902Z,67.50
2023-12-17T21:02:54.474Z,70.90
2023-12-17T21:05:22.119Z,68.18
2023-12-17T21:07:50.458Z,66.55
2023-12-17T21:10:19.924Z,58.53
2023-12-17T21:12:47.539Z,60.95
2023-12-17T21:15:16.315Z,60.67
2023-12-17T21:17:45.008Z,61.33
2023-12-17T21:20:13.546Z,62.50
2023-12-17T21:22:41.666Z,63.70
2023-12-17T21:25:10.565Z,67.72
2023-12-17T21:27:38.160Z,69.57
2023-12-17T21:30:06.474Z,62.95
2023-12-17T21:32:34.140Z,64.10
2023-12-17T21:35:01.720Z,74.70
2023-12-17T21:37:29.270Z,68.28
2023-12-17T21:39:56.830Z,64.70
2023-12-17T21:42:24.512Z,65.43
2023-12-17T21:44:52.261Z,66.93
2023-12-17T21:47:19.824Z,72.40
2023-12-17T21:49:47.453Z,67.55
2023-12-17T21:52:24.669Z,70.10
2023-12-17T21:55:00.981Z,68.40
2023-12-17T21:57:40.704Z,69.30
2023-12-17T22:00:19.084Z,67.82
2023-12-17T22:02:49.649Z,65.63
2023-12-17T22:05:21.548Z,69.32
2023-12-17T22:07:50.185Z,73.38
2023-12-17T22:10:17.991Z,65.45
2023-12-17T22:12:45.848Z,65.15
2023-12-17T22:15:13.683Z,79.25
2023-12-17T22:17:42.224Z,75.15
2023-12-17T22:20:10.801Z,74.60
2023-12-17T22:22:38.756Z,71.35
2023-12-17T22:25:06.779Z,71.55
2023-12-17T22:27:34.367Z,71.55
2023-12-17T22:30:04.977Z,69.82
2023-12-17T22:32:33.053Z,67.15
2023-12-17T22:35:00.688Z,71.55
2023-12-17T22:37:29.153Z,67.45
2023-12-17T22:39:56.782Z,66.95
2023-12-17T22:42:24.409Z,73.10
2023-12-17T22:44:51.907Z,71.85
2023-12-17T22:47:19.525Z,66.68
2023-12-17T22:49:47.920Z,68.55
2023-12-17T22:52:15.481Z,72.25
2023-12-17T22:54:43.100Z,64.35
2023-12-17T22:57:10.912Z,69.72
2023-12-17T22:59:38.558Z,65.47
2023-12-17T23:02:06.271Z,63.85
2023-12-17T23:04:33.835Z,70.70
2023-12-17T23:07:01.415Z,60.65
2023-12-17T23:09:28.960Z,67.13
2023-12-17T23:11:56.439Z,69.93
2023-12-17T23:14:24.094Z,68.28
2023-12-17T23:16:51.646Z,78.78
2023-12-17T23:19:19.278Z,75.88
2023-12-17T23:21:48.815Z,74.15
2023-12-17T23:24:16.361Z,72.95
2023-12-17T23:26:45.141Z,72.70
2023-12-17T23:29:12.673Z,72.20
2023-12-17T23:31:40.371Z,67.70
2023-12-17T23:34:08.140Z,73.53
2023-12-17T23:36:35.794Z,77.15
2023-12-17T23:39:04.127Z,74.78
2023-12-17T23:41:31.798Z,68.10
2023-12-17T23:43:59.288Z,71.35
2023-12-17T23:46:26.849Z,64.43
2023-12-17T23:48:54.442Z,66.43
2023-12-17T23:52:02.406Z,71.28
2023-12-17T23:54:29.988Z,70.15
2023-12-17T23:56:57.470Z,62.90
2023-12-17T23:59:25.832Z,72.28
